MST,Max TemperatureF,Mean TemperatureF,Min TemperatureF,Max Dew PointF,MeanDew PointF,Min DewpointF,Max Humidity, Mean Humidity, Min Humidity, Max Sea Level PressureIn, Mean Sea Level PressureIn, Min Sea Level PressureIn, Max VisibilityMiles, Mean VisibilityMiles, Min VisibilityMiles, Max Wind SpeedMPH, Mean Wind SpeedMPH, Max Gust SpeedMPH,PrecipitationIn, CloudCover, Events, WindDirDegrees
2014-1-1,31,24,17,28,23,13,92,85,77,30.36,30.19,29.98,10,6,0,20,10,26,0.09,7,Fog-Snow,314
2014-1-2,35,27,19,23,18,12,73,65,56,30.30,30.14,29.84,10,10,10,24,15,29,0.00,0,,220
2014-1-3,42,32,21,30,25,16,89,73,56,29.95,29.63,29.42,10,9,2,38,24,46,0.01,6,Snow,285
2014-1-4,21,12,3,17,9,-1,88,81,73,30.35,30.09,29.89,10,6,0,20,9,23,0.06,8,Fog-Snow,3
2014-1-5,3,-5,-14,-2,-12,-22,86,72,57,30.75,30.46,30.16,10,6,0,33,15,38,0.01,6,Snow,319
2014-1-6,30,10,-10,14,-1,-18,65,55,45,30.59,30.36,30.03,10,10,10,18,10,21,0.00,3,,251
2014-1-7,33,29,25,27,23,11,92,68,43,30.06,30.02,29.95,10,8,2,16,8,20,0.02,8,Snow,263
2014-1-8,35,29,23,25,21,16,92,74,56,30.06,29.99,29.88,10,10,10,17,8,21,0.00,2,,182
2014-1-9,38,30,22,27,22,17,78,69,59,29.84,29.70,29.60,10,10,10,23,9,28,0.00,3,,244
2014-1-10,37,29,20,25,21,14,74,64,54,29.83,29.69,29.61,10,10,10,37,10,41,T,5,,283
2014-1-11,45,34,22,31,26,16,81,67,53,29.89,29.57,29.37,10,10,10,39,22,48,0.00,1,,231
2014-1-12,39,31,23,30,24,17,89,67,44,29.89,29.62,29.46,,,,33,15,43,0.02,4,Snow,286
2014-1-13,48,38,27,31,24,15,92,65,38,30.11,29.88,29.70,,,,47,18,58,0.05,7,Snow,294
2014-1-14,32,28,23,25,21,17,85,77,69,30.45,30.29,30.07,10,8,1,31,17,37,0.02,8,Snow,289
2014-1-15,45,37,29,25,22,19,69,55,40,30.21,30.06,29.95,10,9,2,37,17,47,T,2,Snow,279
2014-1-16,31,27,23,23,17,15,78,66,53,30.36,30.29,30.16,10,10,3,33,17,44,T,7,Snow,303
2014-1-17,45,35,24,23,20,17,74,56,37,30.24,30.09,30.00,10,10,10,25,15,31,0.00,2,,277
2014-1-18,43,35,27,27,23,21,78,63,48,30.25,30.12,29.98,10,10,10,26,14,31,0.00,0,,270
2014-1-19,53,43,32,28,22,18,64,47,29,30.04,29.91,29.82,10,10,10,22,12,25,0.00,0,,250
2014-1-20,36,29,22,21,18,16,74,61,47,30.45,30.33,30.08,10,10,10,29,15,38,0.00,1,,294
2014-1-21,45,35,25,26,18,11,78,55,31,30.22,30.19,30.16,10,10,10,23,12,29,0.00,3,,299
2014-1-22,31,21,10,25,17,7,88,78,68,30.56,30.29,30.14,10,9,2,18,9,21,T,8,Snow,8
2014-1-23,34,22,9,13,8,5,84,58,32,30.64,30.47,30.25,10,9,2,20,10,23,T,3,,240
2014-1-24,53,43,33,29,24,10,59,47,35,30.23,30.14,30.04,10,10,10,28,17,39,0.00,5,,296
2014-1-25,55,43,31,29,27,24,78,57,35,30.14,29.97,29.82,10,10,10,33,17,44,0.00,1,,286
2014-1-26,39,21,2,31,21,-2,92,74,56,30.38,29.97,29.79,10,6,0,39,18,48,0.09,7,Fog-Snow,328
2014-1-27,14,4,-6,4,-2,-10,87,74,61,30.45,30.41,30.36,10,10,5,18,7,22,T,4,,315
2014-1-28,25,11,-3,7,1,-6,87,64,40,30.45,30.27,29.98,10,10,10,22,9,25,0.00,0,,249
2014-1-29,41,33,24,30,20,5,82,61,40,29.94,29.65,29.42,10,10,10,24,14,31,0.00,4,,236
2014-1-30,34,18,1,28,11,-2,92,80,67,30.06,29.80,29.46,10,5,1,21,9,26,0.02,7,Snow,351
2014-1-31,36,19,1,19,10,0,87,67,47,30.02,29.90,29.78,10,10,5,28,10,35,0.00,4,,219